Time;durP1;ratioP1;P1;durP2;ratioP2;P2;SDS_P1;SDS_P2;PMS_P1;PMS_P2;Temp;Humidity;BMP_temperature;BMP_pressure;BME280_temperature;BME280_humidity;BME280_pressure;Samples;Min_cycle;Max_cycle;Signal;HPM_P1;HPM_P2
2023/06/11 00:00:18;;;;;;;5.57;0.70;;;;;;;;;;5033873;28;20419;-79
2023/06/11 00:02:54;;;;;;;2.43;0.97;;;;;;;;;;5034011;28;20928;-79
2023/06/11 00:05:20;;;;;;;1.60;0.50;;;;;;;;;;5034064;28;21008;-78
2023/06/11 00:07:48;;;;;;;2.53;0.50;;;;;;;;;;5034160;28;20533;-89
2023/06/11 00:10:14;;;;;;;1.30;0.50;;;;;;;;;;5034190;28;20441;-79
2023/06/11 00:12:40;;;;;;;4.20;0.90;;;;;;;;;;5031692;28;20518;-88
2023/06/11 00:15:06;;;;;;;2.03;0.43;;;;;;;;;;5032117;28;20503;-77
2023/06/11 00:17:33;;;;;;;1.63;0.50;;;;;;;;;;5033814;28;20224;-79
2023/06/11 00:20:01;;;;;;;1.93;0.60;;;;;;;;;;5032432;28;20419;-90
2023/06/11 00:22:30;;;;;;;1.70;0.73;;;;;;;;;;5033516;28;20834;-79
2023/06/11 00:24:56;;;;;;;6.60;1.40;;;;;;;;;;5033559;28;20411;-79
2023/06/11 00:27:25;;;;;;;1.40;1.13;;;;;;;;;;5033121;28;20424;-80
2023/06/11 00:29:52;;;;;;;3.07;1.33;;;;;;;;;;5032674;28;20185;-79
2023/06/11 00:32:18;;;;;;;1.57;0.53;;;;;;;;;;5033266;28;20509;-79
2023/06/11 00:34:44;;;;;;;2.70;0.80;;;;;;;;;;5033162;28;20499;-82
2023/06/11 00:37:11;;;;;;;2.40;0.67;;;;;;;;;;5033874;28;20447;-90
2023/06/11 00:39:37;;;;;;;1.37;0.70;;;;;;;;;;5033178;28;20533;-80
2023/06/11 00:42:03;;;;;;;1.80;0.43;;;;;;;;;;5031905;28;20477;-87
2023/06/11 00:44:29;;;;;;;3.37;0.83;;;;;;;;;;5032373;28;20173;-87
2023/06/11 00:47:03;;;;;;;1.87;0.47;;;;;;;;;;5033297;28;20416;-85
2023/06/11 00:49:29;;;;;;;3.53;1.00;;;;;;;;;;5031820;28;20773;-80
2023/06/11 00:51:55;;;;;;;2.73;0.43;;;;;;;;;;5033302;28;20429;-80
2023/06/11 00:54:21;;;;;;;2.10;0.30;;;;;;;;;;5033238;28;20408;-81
2023/06/11 00:56:47;;;;;;;1.70;0.87;;;;;;;;;;5032008;28;20438;-79
2023/06/11 00:59:13;;;;;;;2.60;1.13;;;;;;;;;;5032333;28;20423;-87
2023/06/11 01:01:46;;;;;;;1.10;0.53;;;;;;;;;;5031683;28;20575;-80
2023/06/11 01:04:17;;;;;;;3.07;0.60;;;;;;;;;;5032990;28;20405;-80
2023/06/11 01:06:46;;;;;;;3.47;0.73;;;;;;;;;;5033159;28;20935;-81
2023/06/11 01:09:12;;;;;;;1.50;0.50;;;;;;;;;;5033077;28;20748;-88
2023/06/11 01:11:38;;;;;;;4.03;0.87;;;;;;;;;;5033100;28;20926;-80
2023/06/11 01:14:10;;;;;;;1.77;0.60;;;;;;;;;;5022009;28;20916;-79
2023/06/11 01:16:44;;;;;;;2.60;0.50;;;;;;;;;;5021394;28;20425;-79
2023/06/11 01:19:29;;;;;;;1.60;0.60;;;;;;;;;;5023625;28;20431;-80
2023/06/11 01:21:59;;;;;;;1.73;0.50;;;;;;;;;;5024362;28;20465;-80
2023/06/11 01:24:43;;;;;;;5.57;1.00;;;;;;;;;;5024132;28;20443;-80
2023/06/11 01:27:22;;;;;;;2.87;0.83;;;;;;;;;;5022030;28;20406;-81
2023/06/11 01:29:49;;;;;;;2.80;0.70;;;;;;;;;;5022684;28;20775;-81
2023/06/11 01:32:15;;;;;;;2.87;1.00;;;;;;;;;;5022934;28;20497;-80
2023/06/11 01:34:42;;;;;;;2.17;0.90;;;;;;;;;;5021413;28;20517;-81
2023/06/11 01:37:14;;;;;;;2.07;0.57;;;;;;;;;;5021562;28;20416;-82
2023/06/11 01:39:45;;;;;;;0.90;0.40;;;;;;;;;;5023474;28;20771;-81
2023/06/11 01:42:11;;;;;;;2.70;0.50;;;;;;;;;;5021237;28;20981;-80
2023/06/11 01:44:37;;;;;;;4.07;0.70;;;;;;;;;;5019857;28;20470;-80
2023/06/11 01:47:02;;;;;;;1.37;0.40;;;;;;;;;;5023406;28;20415;-80
2023/06/11 01:49:28;;;;;;;2.30;0.80;;;;;;;;;;5022160;28;20172;-80
2023/06/11 01:51:54;;;;;;;1.30;0.50;;;;;;;;;;5020512;28;20740;-82
2023/06/11 01:54:20;;;;;;;2.53;0.60;;;;;;;;;;5023359;28;20461;-80
2023/06/11 01:56:47;;;;;;;3.00;1.10;;;;;;;;;;5021781;28;20420;-80
2023/06/11 01:59:13;;;;;;;1.87;0.60;;;;;;;;;;5021566;28;20411;-80
2023/06/11 02:01:40;;;;;;;1.23;0.70;;;;;;;;;;5026024;28;20469;-81
2023/06/11 02:04:06;;;;;;;1.97;0.80;;;;;;;;;;5032523;28;20195;-82
2023/06/11 02:06:33;;;;;;;2.80;0.60;;;;;;;;;;5032580;28;20822;-82
2023/06/11 02:08:59;;;;;;;1.20;0.60;;;;;;;;;;5032428;28;20416;-84
2023/06/11 02:11:28;;;;;;;2.43;0.60;;;;;;;;;;5032406;28;20432;-82
2023/06/11 02:13:54;;;;;;;1.30;0.87;;;;;;;;;;5032166;28;20186;-82
2023/06/11 02:16:20;;;;;;;2.70;0.53;;;;;;;;;;5032507;28;20411;-85
2023/06/11 02:18:46;;;;;;;2.27;0.60;;;;;;;;;;5032511;28;20505;-86
2023/06/11 02:21:12;;;;;;;4.40;0.63;;;;;;;;;;5032366;28;20556;-83
2023/06/11 02:23:38;;;;;;;2.40;1.47;;;;;;;;;;5032183;28;20889;-86
2023/06/11 02:26:04;;;;;;;6.10;0.40;;;;;;;;;;5032348;28;20417;-82
2023/06/11 02:28:30;;;;;;;1.40;0.53;;;;;;;;;;5032037;28;20552;-87
2023/06/11 02:30:56;;;;;;;3.40;0.50;;;;;;;;;;5032121;28;20492;-85
2023/06/11 02:33:22;;;;;;;1.13;0.40;;;;;;;;;;5032291;28;20177;-80
2023/06/11 02:35:48;;;;;;;1.80;0.43;;;;;;;;;;5033319;28;20499;-80
2023/06/11 02:38:14;;;;;;;1.60;0.70;;;;;;;;;;5034476;28;20175;-81
2023/06/11 02:40:40;;;;;;;2.57;0.90;;;;;;;;;;5035474;28;20241;-84
2023/06/11 02:43:06;;;;;;;1.00;0.40;;;;;;;;;;5034970;28;20455;-83
2023/06/11 02:45:32;;;;;;;4.10;1.10;;;;;;;;;;5035615;28;20421;-81
2023/06/11 02:47:58;;;;;;;1.80;0.70;;;;;;;;;;5035647;28;20410;-89
2023/06/11 02:50:24;;;;;;;2.40;0.63;;;;;;;;;;5036104;28;20433;-86
2023/06/11 02:52:50;;;;;;;2.73;0.50;;;;;;;;;;5035993;28;20172;-82
2023/06/11 02:55:16;;;;;;;2.40;0.40;;;;;;;;;;5035958;28;20422;-91
2023/06/11 02:57:43;;;;;;;2.67;0.63;;;;;;;;;;5035726;28;20170;-82
2023/06/11 03:00:10;;;;;;;2.00;0.93;;;;;;;;;;5035945;28;20444;-81
2023/06/11 03:02:36;;;;;;;1.47;0.30;;;;;;;;;;5035540;28;20939;-81
2023/06/11 03:05:02;;;;;;;1.67;0.53;;;;;;;;;;5035637;28;20436;-88
2023/06/11 03:07:28;;;;;;;1.27;0.40;;;;;;;;;;5035310;28;20452;-81
2023/06/11 03:09:54;;;;;;;2.30;0.40;;;;;;;;;;5035229;28;20413;-80
2023/06/11 03:12:20;;;;;;;4.50;1.00;;;;;;;;;;5034203;28;20179;-87
2023/06/11 03:14:46;;;;;;;1.63;0.83;;;;;;;;;;5034632;28;20627;-85
2023/06/11 03:17:12;;;;;;;1.07;0.33;;;;;;;;;;5034795;28;20513;-80
2023/06/11 03:19:38;;;;;;;2.30;1.00;;;;;;;;;;5035002;28;20438;-81
2023/06/11 03:22:04;;;;;;;2.60;0.90;;;;;;;;;;5034883;28;20652;-81
2023/06/11 03:24:30;;;;;;;2.33;0.50;;;;;;;;;;5034909;28;20784;-82
2023/06/11 03:26:56;;;;;;;2.30;0.73;;;;;;;;;;5034827;28;20422;-83
2023/06/11 03:29:22;;;;;;;3.40;1.00;;;;;;;;;;5034518;28;20167;-81
2023/06/11 03:31:48;;;;;;;1.50;0.70;;;;;;;;;;5034578;28;20821;-80
2023/06/11 03:34:14;;;;;;;1.33;0.40;;;;;;;;;;5034764;28;20178;-81
2023/06/11 03:36:40;;;;;;;2.00;0.60;;;;;;;;;;5033072;28;20425;-87
2023/06/11 03:39:06;;;;;;;2.60;0.97;;;;;;;;;;5033444;28;20175;-81
2023/06/11 03:41:32;;;;;;;1.23;0.40;;;;;;;;;;5034743;28;20519;-78
2023/06/11 03:43:58;;;;;;;3.67;0.53;;;;;;;;;;5034502;28;20413;-78
2023/06/11 03:46:23;;;;;;;2.57;0.50;;;;;;;;;;5034718;28;20797;-79
2023/06/11 03:48:49;;;;;;;1.90;0.87;;;;;;;;;;5034689;28;20409;-78
2023/06/11 03:51:15;;;;;;;3.10;1.20;;;;;;;;;;5034333;28;20419;-85
2023/06/11 03:53:41;;;;;;;4.03;1.10;;;;;;;;;;5034488;28;20413;-79
2023/06/11 03:56:07;;;;;;;1.77;0.70;;;;;;;;;;5034534;28;20974;-80
2023/06/11 03:58:33;;;;;;;5.23;1.37;;;;;;;;;;5034266;28;20423;-81
2023/06/11 04:00:59;;;;;;;3.27;0.50;;;;;;;;;;5034351;28;20553;-78
2023/06/11 04:03:25;;;;;;;2.00;1.07;;;;;;;;;;5034392;28;20426;-82
2023/06/11 04:05:51;;;;;;;2.03;0.70;;;;;;;;;;5034486;28;21026;-79
2023/06/11 04:08:17;;;;;;;2.40;0.90;;;;;;;;;;5033138;28;20183;-78
2023/06/11 04:10:43;;;;;;;2.43;0.33;;;;;;;;;;5034579;28;20775;-84
2023/06/11 04:13:09;;;;;;;2.93;1.07;;;;;;;;;;5033906;28;20423;-78
2023/06/11 04:15:35;;;;;;;1.77;0.90;;;;;;;;;;5034154;28;20887;-78
2023/06/11 04:18:01;;;;;;;2.50;0.77;;;;;;;;;;5034179;28;20470;-78
2023/06/11 04:20:27;;;;;;;2.00;0.90;;;;;;;;;;5034026;28;20241;-77
2023/06/11 04:22:53;;;;;;;3.70;1.33;;;;;;;;;;5033626;28;20224;-78
2023/06/11 04:25:19;;;;;;;3.00;0.77;;;;;;;;;;5033910;28;20259;-77
2023/06/11 04:27:49;;;;;;;3.33;1.03;;;;;;;;;;5033555;28;20987;-77
2023/06/11 04:30:15;;;;;;;2.43;1.10;;;;;;;;;;5033801;28;20454;-78
2023/06/11 04:32:41;;;;;;;3.13;0.93;;;;;;;;;;5035135;28;20414;-78
2023/06/11 04:35:07;;;;;;;1.57;1.27;;;;;;;;;;5033833;28;20925;-87
2023/06/11 04:37:40;;;;;;;5.00;1.80;;;;;;;;;;5033887;28;20581;-78
2023/06/11 04:40:09;;;;;;;3.67;1.13;;;;;;;;;;5033687;28;20411;-78
2023/06/11 04:42:36;;;;;;;1.77;0.63;;;;;;;;;;5033320;28;20804;-77
2023/06/11 04:45:04;;;;;;;1.20;0.50;;;;;;;;;;5033850;28;20422;-79
2023/06/11 04:47:32;;;;;;;1.47;1.37;;;;;;;;;;5033715;28;20423;-79
2023/06/11 04:50:02;;;;;;;2.83;1.13;;;;;;;;;;5033711;28;20411;-87
2023/06/11 04:52:31;;;;;;;2.70;0.77;;;;;;;;;;5033684;28;20451;-79
2023/06/11 04:54:57;;;;;;;3.30;1.50;;;;;;;;;;5033472;28;20467;-78
2023/06/11 04:57:23;;;;;;;3.67;1.00;;;;;;;;;;5032723;28;20418;-79
2023/06/11 04:59:50;;;;;;;2.60;1.30;;;;;;;;;;5033506;28;20772;-80
2023/06/11 05:02:17;;;;;;;2.07;0.60;;;;;;;;;;5031979;28;21016;-86
2023/06/11 05:04:43;;;;;;;2.90;0.97;;;;;;;;;;5033202;28;20443;-89
2023/06/11 05:07:09;;;;;;;3.50;0.67;;;;;;;;;;5033584;28;20443;-86
2023/06/11 05:09:35;;;;;;;2.00;1.13;;;;;;;;;;5033289;28;20593;-90
2023/06/11 05:12:01;;;;;;;3.00;1.13;;;;;;;;;;5032961;28;20418;-78
2023/06/11 05:14:27;;;;;;;2.10;1.00;;;;;;;;;;5032794;28;20487;-79
2023/06/11 05:16:53;;;;;;;5.83;1.20;;;;;;;;;;5032005;28;20189;-78
2023/06/11 05:19:19;;;;;;;2.73;1.43;;;;;;;;;;5033133;28;20751;-78
2023/06/11 05:21:46;;;;;;;3.20;1.03;;;;;;;;;;5032950;28;20561;-78
2023/06/11 05:24:19;;;;;;;4.07;1.10;;;;;;;;;;5033003;28;20416;-80
2023/06/11 05:26:45;;;;;;;2.50;1.13;;;;;;;;;;5033051;28;20509;-78
2023/06/11 05:29:12;;;;;;;3.53;1.30;;;;;;;;;;5032626;28;20446;-90
2023/06/11 05:31:38;;;;;;;1.50;0.93;;;;;;;;;;5032776;28;20473;-86
2023/06/11 05:34:04;;;;;;;3.30;1.33;;;;;;;;;;5032579;28;20463;-78
2023/06/11 05:36:31;;;;;;;2.40;0.80;;;;;;;;;;5032913;28;20429;-83
2023/06/11 05:38:57;;;;;;;2.60;0.73;;;;;;;;;;5032947;28;20552;-78
2023/06/11 05:41:23;;;;;;;2.67;1.70;;;;;;;;;;5032704;28;20479;-79
2023/06/11 05:43:49;;;;;;;2.20;0.83;;;;;;;;;;5032520;28;20886;-77
2023/06/11 05:46:15;;;;;;;2.23;0.80;;;;;;;;;;5032857;28;20512;-78
2023/06/11 05:48:42;;;;;;;2.50;0.87;;;;;;;;;;5031378;28;20462;-77
2023/06/11 05:51:08;;;;;;;2.37;0.63;;;;;;;;;;5032634;28;20443;-79
2023/06/11 05:53:33;;;;;;;2.20;0.93;;;;;;;;;;5032696;28;20420;-79
2023/06/11 05:56:03;;;;;;;2.43;1.10;;;;;;;;;;5032745;28;20475;-84
2023/06/11 05:58:31;;;;;;;1.93;1.17;;;;;;;;;;5032357;28;20181;-78
2023/06/11 06:00:57;;;;;;;2.50;0.87;;;;;;;;;;5032524;28;20611;-78
2023/06/11 06:03:23;;;;;;;1.63;0.80;;;;;;;;;;5032541;28;20500;-78
2023/06/11 06:05:48;;;;;;;2.10;1.70;;;;;;;;;;5032573;28;20892;-85
2023/06/11 06:08:14;;;;;;;1.73;1.03;;;;;;;;;;5032601;28;20219;-84
2023/06/11 06:10:40;;;;;;;3.40;0.93;;;;;;;;;;5033477;28;20174;-78
2023/06/11 06:13:06;;;;;;;3.07;1.20;;;;;;;;;;5035931;28;20622;-79
2023/06/11 06:15:32;;;;;;;2.10;1.07;;;;;;;;;;5036212;28;20916;-78
2023/06/11 06:17:58;;;;;;;2.40;0.93;;;;;;;;;;5036106;28;20956;-78
2023/06/11 06:20:24;;;;;;;3.97;1.50;;;;;;;;;;5036098;28;20227;-78
2023/06/11 06:22:50;;;;;;;2.80;1.17;;;;;;;;;;5036042;28;20240;-78
2023/06/11 06:25:17;;;;;;;1.03;0.87;;;;;;;;;;5034752;28;20180;-77
2023/06/11 06:27:43;;;;;;;5.10;0.90;;;;;;;;;;5035680;28;20178;-78
2023/06/11 06:30:09;;;;;;;2.50;1.10;;;;;;;;;;5035706;28;20459;-78
2023/06/11 06:32:38;;;;;;;5.00;1.27;;;;;;;;;;5035815;28;20417;-78
2023/06/11 06:35:04;;;;;;;3.70;1.43;;;;;;;;;;5035788;28;20411;-79
2023/06/11 06:37:30;;;;;;;2.73;0.60;;;;;;;;;;5035606;28;20421;-78
2023/06/11 06:39:56;;;;;;;2.53;1.10;;;;;;;;;;5035611;28;20467;-78
2023/06/11 06:42:22;;;;;;;3.27;1.30;;;;;;;;;;5035213;28;20497;-78
2023/06/11 06:44:51;;;;;;;2.90;1.30;;;;;;;;;;5035704;28;20902;-78
2023/06/11 06:47:17;;;;;;;1.27;0.83;;;;;;;;;;5022581;28;20419;-77
2023/06/11 06:49:43;;;;;;;2.50;1.23;;;;;;;;;;5019471;28;20987;-78
2023/06/11 06:52:11;;;;;;;2.30;1.30;;;;;;;;;;5021102;28;20471;-78
2023/06/11 06:54:37;;;;;;;2.50;0.93;;;;;;;;;;5027018;28;20403;-78
2023/06/11 06:57:03;;;;;;;1.73;1.00;;;;;;;;;;5030705;28;20790;-78
2023/06/11 06:59:29;;;;;;;2.90;1.00;;;;;;;;;;5022407;28;20412;-78
2023/06/11 07:01:55;;;;;;;4.00;1.30;;;;;;;;;;5026679;28;20468;-78
2023/06/11 07:04:21;;;;;;;4.10;1.47;;;;;;;;;;5029254;28;20411;-79
2023/06/11 07:06:46;;;;;;;2.03;1.30;;;;;;;;;;5033019;28;20439;-79
2023/06/11 07:09:12;;;;;;;1.60;0.73;;;;;;;;;;5029307;28;20414;-78
2023/06/11 07:11:38;;;;;;;3.03;1.77;;;;;;;;;;5024320;28;20187;-85
2023/06/11 07:14:04;;;;;;;3.23;1.13;;;;;;;;;;5024089;28;20658;-86
2023/06/11 07:16:30;;;;;;;1.53;0.93;;;;;;;;;;5025667;28;20170;-79
2023/06/11 07:18:57;;;;;;;1.40;0.67;;;;;;;;;;5023618;28;20929;-79
2023/06/11 07:21:23;;;;;;;2.30;1.07;;;;;;;;;;5025872;28;20209;-78
2023/06/11 07:23:50;;;;;;;1.57;1.20;;;;;;;;;;5023584;28;21734;-78
2023/06/11 07:26:17;;;;;;;1.60;1.00;;;;;;;;;;5028990;28;20417;-85
2023/06/11 07:28:43;;;;;;;2.70;1.20;;;;;;;;;;5026134;28;20435;-88
2023/06/11 07:31:10;;;;;;;7.33;1.50;;;;;;;;;;5028661;28;20480;-87
2023/06/11 07:33:36;;;;;;;6.67;2.10;;;;;;;;;;5022645;28;20526;-82
2023/06/11 07:36:02;;;;;;;3.80;1.27;;;;;;;;;;5030698;28;20505;-80
2023/06/11 07:38:29;;;;;;;1.50;0.93;;;;;;;;;;5030122;28;20890;-87
2023/06/11 07:40:55;;;;;;;4.20;1.53;;;;;;;;;;5025314;28;20428;-81
2023/06/11 07:43:21;;;;;;;2.00;1.27;;;;;;;;;;5024285;28;20495;-83
2023/06/11 07:45:47;;;;;;;2.53;1.47;;;;;;;;;;5021551;28;21064;-86
2023/06/11 07:48:13;;;;;;;3.37;1.50;;;;;;;;;;5020823;28;20510;-81
2023/06/11 07:50:39;;;;;;;2.20;1.07;;;;;;;;;;5022091;28;20314;-82
2023/06/11 07:53:05;;;;;;;2.03;1.83;;;;;;;;;;5019546;28;20171;-81
2023/06/11 07:55:31;;;;;;;2.63;1.70;;;;;;;;;;5026584;28;20183;-86
2023/06/11 07:57:56;;;;;;;2.00;1.70;;;;;;;;;;5025738;28;20544;-87
2023/06/11 08:00:22;;;;;;;4.00;1.10;;;;;;;;;;5029152;28;20185;-88
2023/06/11 08:02:48;;;;;;;3.80;1.93;;;;;;;;;;5019061;28;20210;-81
2023/06/11 08:05:17;;;;;;;3.20;1.10;;;;;;;;;;5014423;28;20775;-82
2023/06/11 08:07:47;;;;;;;1.53;1.00;;;;;;;;;;5013199;28;20214;-88
2023/06/11 08:10:13;;;;;;;3.10;1.67;;;;;;;;;;5014208;28;20472;-83
2023/06/11 08:12:40;;;;;;;4.80;1.60;;;;;;;;;;5013783;28;20862;-78
2023/06/11 08:15:06;;;;;;;4.03;1.97;;;;;;;;;;5013750;28;20418;-79
2023/06/11 08:17:32;;;;;;;1.97;1.40;;;;;;;;;;5014074;28;20438;-84
2023/06/11 08:19:58;;;;;;;2.80;1.53;;;;;;;;;;5014115;28;20844;-83
2023/06/11 08:22:24;;;;;;;3.60;2.03;;;;;;;;;;5024861;28;20221;-81
2023/06/11 08:24:50;;;;;;;2.53;1.37;;;;;;;;;;5033766;28;20182;-85
2023/06/11 08:27:15;;;;;;;2.60;1.37;;;;;;;;;;5032416;28;20207;-81
2023/06/11 08:29:41;;;;;;;4.77;1.53;;;;;;;;;;5033520;28;20452;-83
2023/06/11 08:32:07;;;;;;;2.50;1.83;;;;;;;;;;5032719;28;20304;-79
2023/06/11 08:34:33;;;;;;;3.20;1.97;;;;;;;;;;5033118;28;20261;-79
2023/06/11 08:37:00;;;;;;;2.07;1.30;;;;;;;;;;5033165;28;20433;-82
2023/06/11 08:39:26;;;;;;;4.97;2.10;;;;;;;;;;5033433;28;20315;-80
2023/06/11 08:41:52;;;;;;;3.33;1.50;;;;;;;;;;5032902;28;20559;-79
2023/06/11 08:44:18;;;;;;;3.03;1.40;;;;;;;;;;5033375;28;20500;-79
2023/06/11 08:46:45;;;;;;;2.47;1.83;;;;;;;;;;5033225;28;20490;-81
2023/06/11 08:49:16;;;;;;;5.40;2.00;;;;;;;;;;5033285;28;20251;-79
2023/06/11 08:51:42;;;;;;;2.57;1.63;;;;;;;;;;5032036;28;20401;-78
2023/06/11 08:54:08;;;;;;;4.27;1.70;;;;;;;;;;5031856;28;20847;-80
2023/06/11 08:56:34;;;;;;;2.90;2.17;;;;;;;;;;5032949;28;20584;-80
2023/06/11 08:59:01;;;;;;;3.43;1.83;;;;;;;;;;5033303;28;20413;-79
2023/06/11 09:01:27;;;;;;;1.50;1.40;;;;;;;;;;5033013;28;20472;-79
2023/06/11 09:03:53;;;;;;;2.00;1.00;;;;;;;;;;5033289;28;20452;-79
2023/06/11 09:06:20;;;;;;;2.60;1.93;;;;;;;;;;5032988;28;20432;-79
2023/06/11 09:08:57;;;;;;;2.70;1.97;;;;;;;;;;5013327;28;20429;-79
2023/06/11 09:11:23;;;;;;;2.87;2.07;;;;;;;;;;5012616;28;20926;-80
2023/06/11 09:13:49;;;;;;;3.10;1.20;;;;;;;;;;5011957;28;20417;-79
2023/06/11 09:16:15;;;;;;;3.87;1.90;;;;;;;;;;5013450;28;20236;-79
2023/06/11 09:18:43;;;;;;;2.20;1.70;;;;;;;;;;5013279;28;20183;-80
2023/06/11 09:21:11;;;;;;;1.83;1.50;;;;;;;;;;5013243;28;20507;-81
2023/06/11 09:23:39;;;;;;;2.50;1.53;;;;;;;;;;5013219;28;20426;-82
2023/06/11 09:26:05;;;;;;;3.17;1.90;;;;;;;;;;5013179;28;20777;-80
2023/06/11 09:28:32;;;;;;;3.10;1.70;;;;;;;;;;5012765;28;20414;-79
2023/06/11 09:30:58;;;;;;;2.23;1.40;;;;;;;;;;5028259;28;21005;-80
2023/06/11 09:33:24;;;;;;;3.73;1.93;;;;;;;;;;5028491;28;20428;-82
2023/06/11 09:35:50;;;;;;;2.73;1.97;;;;;;;;;;5013172;28;20440;-79
2023/06/11 09:38:20;;;;;;;1.50;1.40;;;;;;;;;;5028053;28;20796;-81
2023/06/11 09:40:47;;;;;;;3.60;1.60;;;;;;;;;;5028321;28;20429;-80
2023/06/11 09:43:14;;;;;;;3.63;1.83;;;;;;;;;;5012694;28;20473;-81
2023/06/11 09:45:40;;;;;;;4.60;1.50;;;;;;;;;;5017095;28;20410;-80
2023/06/11 09:48:06;;;;;;;5.30;1.77;;;;;;;;;;5017006;28;20457;-79
2023/06/11 09:50:36;;;;;;;2.70;1.60;;;;;;;;;;5032168;28;20422;-80
2023/06/11 09:53:03;;;;;;;3.50;2.10;;;;;;;;;;5016711;28;20609;-84
2023/06/11 09:55:31;;;;;;;2.97;2.17;;;;;;;;;;5016870;28;20410;-78
2023/06/11 09:57:57;;;;;;;5.43;2.33;;;;;;;;;;5016497;28;20405;-85
2023/06/11 10:00:23;;;;;;;2.37;1.70;;;;;;;;;;5016863;28;20980;-84
2023/06/11 10:02:49;;;;;;;2.27;1.57;;;;;;;;;;5016569;28;20312;-84
2023/06/11 10:05:15;;;;;;;6.63;2.30;;;;;;;;;;5016604;28;20774;-84
2023/06/11 10:08:07;;;;;;;2.60;1.83;;;;;;;;;;5016605;28;20456;-85
2023/06/11 10:10:36;;;;;;;3.90;1.97;;;;;;;;;;5015469;28;20504;-80
2023/06/11 10:13:02;;;;;;;2.97;1.70;;;;;;;;;;5021209;28;20424;-80
2023/06/11 10:15:30;;;;;;;2.23;1.30;;;;;;;;;;5045848;28;20477;-78
2023/06/11 10:17:56;;;;;;;4.63;1.90;;;;;;;;;;5035934;28;20413;-88
2023/06/11 10:20:27;;;;;;;2.10;1.80;;;;;;;;;;5036043;28;20555;-81
2023/06/11 10:23:03;;;;;;;1.70;1.50;;;;;;;;;;5035987;28;20525;-87
2023/06/11 10:25:52;;;;;;;3.20;1.50;;;;;;;;;;5035893;28;20767;-80
2023/06/11 10:28:18;;;;;;;2.63;1.30;;;;;;;;;;5032573;28;20409;-87
2023/06/11 10:31:02;;;;;;;2.20;1.47;;;;;;;;;;5051046;28;20537;-84
2023/06/11 10:33:44;;;;;;;4.20;2.10;;;;;;;;;;5035746;28;20182;-78
2023/06/11 10:36:23;;;;;;;4.23;2.17;;;;;;;;;;5035632;28;20838;-87
2023/06/11 10:38:49;;;;;;;2.33;1.80;;;;;;;;;;5035753;28;20421;-81
2023/06/11 10:41:15;;;;;;;2.57;1.83;;;;;;;;;;5035126;28;20461;-78
2023/06/11 10:43:41;;;;;;;3.87;2.20;;;;;;;;;;5035579;28;20416;-80
2023/06/11 10:46:11;;;;;;;2.90;1.87;;;;;;;;;;5035453;28;20175;-78
2023/06/11 10:48:51;;;;;;;5.27;2.00;;;;;;;;;;5035352;28;20765;-85
2023/06/11 10:51:17;;;;;;;2.03;1.30;;;;;;;;;;5035441;28;20815;-80
2023/06/11 10:53:43;;;;;;;2.10;1.60;;;;;;;;;;5050723;28;20512;-84
2023/06/11 10:56:12;;;;;;;2.97;2.20;;;;;;;;;;5034277;28;20420;-83
2023/06/11 10:58:38;;;;;;;3.20;1.33;;;;;;;;;;5050676;28;20248;-85
2023/06/11 11:01:08;;;;;;;3.53;1.97;;;;;;;;;;5035220;28;20437;-85
2023/06/11 11:03:35;;;;;;;3.03;1.80;;;;;;;;;;5035251;28;20436;-82
2023/06/11 11:06:01;;;;;;;2.87;2.03;;;;;;;;;;5050320;28;20409;-81
2023/06/11 11:08:28;;;;;;;3.40;1.73;;;;;;;;;;5035317;28;20413;-84
2023/06/11 11:10:55;;;;;;;2.53;1.90;;;;;;;;;;5035153;28;20401;-80
2023/06/11 11:13:22;;;;;;;2.77;1.63;;;;;;;;;;5034756;28;20462;-79
2023/06/11 11:15:48;;;;;;;4.83;1.70;;;;;;;;;;5035008;28;20762;-80
2023/06/11 11:18:13;;;;;;;2.57;1.70;;;38.00;1.00;;;;;;5035066;28;20409;-79
2023/06/11 11:20:39;;;;;;;2.83;1.27;;;38.30;1.00;;;;;;5034909;28;20258;-82
2023/06/11 11:23:05;;;;;;;2.23;1.60;;;38.30;1.00;;;;;;5034926;28;20212;-79
2023/06/11 11:25:32;;;;;;;2.30;1.83;;;38.40;1.00;;;;;;5035065;28;20170;-79
2023/06/11 11:27:58;;;;;;;3.80;1.47;;;38.40;1.00;;;;;;5034439;28;20760;-79
2023/06/11 11:30:28;;;;;;;3.27;1.53;;;38.40;1.00;;;;;;5034571;28;20464;-79
2023/06/11 11:32:54;;;;;;;1.67;1.50;;;38.60;1.00;;;;;;5035138;28;20178;-79
2023/06/11 11:35:21;;;;;;;3.27;1.97;;;38.70;1.00;;;;;;5033257;28;20466;-80
2023/06/11 11:37:48;;;;;;;2.23;2.07;;;38.70;1.00;;;;;;5034638;28;20313;-80
2023/06/11 11:40:18;;;;;;;1.93;1.60;;;38.70;1.00;;;;;;5034517;28;20426;-80
2023/06/11 11:42:45;;;;;;;1.97;1.33;;;38.70;1.00;;;;;;5034127;28;20479;-79
2023/06/11 11:45:17;;;;;;;4.03;1.90;;;38.70;1.00;;;;;;5034539;28;20450;-84
2023/06/11 11:47:50;;;;;;;2.70;1.63;;;38.70;1.00;;;;;;5034247;28;20511;-79
2023/06/11 11:50:25;;;;;;;2.87;1.57;;;38.70;1.00;;;;;;5028971;28;20506;-80
2023/06/11 11:53:18;;;;;;;1.80;1.70;;;38.60;1.00;;;;;;5034575;28;20420;-78
2023/06/11 11:55:46;;;;;;;1.57;1.47;;;38.50;1.00;;;;;;5031220;28;20421;-81
2023/06/11 11:58:13;;;;;;;1.77;1.40;;;38.20;1.00;;;;;;5028624;28;20438;-84
2023/06/11 12:00:50;;;;;;;4.17;1.70;;;38.10;1.00;;;;;;5014564;28;20441;-80
2023/06/11 12:03:20;;;;;;;1.80;1.40;;;38.00;1.00;;;;;;5019577;28;20483;-87
2023/06/11 12:06:06;;;;;;;3.67;2.20;;;37.90;1.00;;;;;;5033270;28;20409;-87
2023/06/11 12:08:33;;;;;;;1.60;1.50;;;37.60;1.00;;;;;;5033455;28;20398;-83
2023/06/11 12:10:59;;;;;;;1.60;1.33;;;37.60;1.00;;;;;;5035214;28;20486;-83
2023/06/11 12:13:25;;;;;;;2.00;1.63;;;37.50;1.00;;;;;;5032595;28;20421;-81
2023/06/11 12:15:51;;;;;;;1.90;1.70;;;37.50;1.00;;;;;;5033006;28;20421;-84
2023/06/11 12:18:18;;;;;;;1.70;1.53;;;37.60;1.00;;;;;;5032903;28;20204;-81
2023/06/11 12:20:44;;;;;;;2.60;2.13;;;37.70;1.00;;;;;;5032851;28;20162;-81
2023/06/11 12:23:09;;;;;;;3.03;2.07;;;37.70;1.00;;;;;;5035062;28;20473;-80
2023/06/11 12:25:35;;;;;;;3.43;2.10;;;37.80;1.00;;;;;;5032522;28;20174;-85
2023/06/11 12:28:01;;;;;;;2.77;1.67;;;37.80;1.00;;;;;;5015419;28;20183;-88
2023/06/11 12:30:30;;;;;;;1.63;1.50;;;37.70;1.00;;;;;;5013904;28;20449;-82
2023/06/11 12:32:56;;;;;;;2.67;2.37;;;37.10;1.00;;;;;;5013975;28;20179;-78
2023/06/11 12:35:21;;;;;;;2.60;1.57;;;37.00;1.00;;;;;;5016463;28;20504;-79
2023/06/11 12:37:47;;;;;;;1.70;1.50;;;37.20;1.00;;;;;;5033229;28;20868;-78
2023/06/11 12:40:12;;;;;;;2.33;1.90;;;37.20;1.00;;;;;;5032154;28;20185;-78
2023/06/11 12:42:41;;;;;;;2.00;1.90;;;37.50;1.00;;;;;;5032726;28;20576;-78
2023/06/11 12:45:07;;;;;;;2.27;1.40;;;37.60;1.00;;;;;;5032247;28;20666;-77
2023/06/11 12:47:32;;;;;;;3.17;2.30;;;37.80;1.00;;;;;;5032162;28;20472;-77
2023/06/11 12:49:58;;;;;;;2.73;1.80;;;37.90;1.00;;;;;;5033079;28;20414;-77
2023/06/11 12:52:23;;;;;;;1.90;1.80;;;38.00;1.00;;;;;;5031997;28;20603;-78
2023/06/11 12:54:49;;;;;;;2.83;1.67;;;38.10;1.00;;;;;;5033240;28;20271;-78
2023/06/11 12:57:15;;;;;;;2.00;1.80;;;38.10;1.00;;;;;;5031625;28;20179;-79
2023/06/11 12:59:41;;;;;;;4.07;1.60;;;38.20;1.00;;;;;;5033243;28;20177;-80
2023/06/11 13:02:08;;;;;;;3.83;1.97;;;38.30;1.00;;;;;;5033032;28;20209;-78
2023/06/11 13:04:33;;;;;;;3.67;2.17;;;38.30;1.00;;;;;;5033100;28;20413;-77
2023/06/11 13:06:59;;;;;;;3.03;2.00;;;38.30;1.00;;;;;;5033182;28;20936;-80
2023/06/11 13:09:25;;;;;;;2.37;2.17;;;38.30;1.00;;;;;;5033121;28;20801;-78
2023/06/11 13:11:56;;;;;;;1.50;1.40;;;38.40;1.00;;;;;;5032465;28;20171;-79
2023/06/11 13:14:22;;;;;;;2.10;1.90;;;38.40;1.00;;;;;;5033088;28;20178;-79
2023/06/11 13:16:51;;;;;;;1.97;1.80;;;38.40;1.00;;;;;;5031645;28;20425;-77
2023/06/11 13:19:17;;;;;;;3.23;1.97;;;38.30;1.00;;;;;;5032499;28;20178;-78
2023/06/11 13:21:42;;;;;;;1.73;1.60;;;38.20;1.00;;;;;;5032896;28;20453;-78
2023/06/11 13:24:08;;;;;;;2.90;1.93;;;38.10;1.00;;;;;;5031492;28;20182;-79
2023/06/11 13:26:33;;;;;;;2.20;1.40;;;38.10;1.00;;;;;;5032504;28;20206;-80
2023/06/11 13:28:59;;;;;;;1.57;1.47;;;38.20;1.00;;;;;;5031571;28;20657;-80
2023/06/11 13:31:25;;;;;;;2.17;1.97;;;38.30;1.00;;;;;;5032263;28;20218;-79
2023/06/11 13:33:56;;;;;;;1.80;1.57;;;38.20;1.00;;;;;;5032307;28;20185;-79
2023/06/11 13:36:22;;;;;;;2.00;1.70;;;38.30;1.00;;;;;;5032346;28;20186;-78
2023/06/11 13:38:47;;;;;;;2.27;2.07;;;38.30;1.00;;;;;;5032405;28;20499;-82
2023/06/11 13:41:13;;;;;;;3.23;3.03;;;38.30;1.00;;;;;;5031849;28;20527;-79
2023/06/11 13:43:38;;;;;;;4.07;1.93;;;38.40;1.00;;;;;;5032285;28;20170;-82
2023/06/11 13:46:04;;;;;;;2.13;1.83;;;38.40;1.00;;;;;;5031772;28;20182;-83
2023/06/11 13:48:29;;;;;;;2.43;1.70;;;38.20;1.00;;;;;;5015310;28;20179;-81
2023/06/11 13:50:55;;;;;;;2.47;1.87;;;37.90;1.00;;;;;;5012676;28;20321;-81
2023/06/11 13:53:24;;;;;;;1.97;1.73;;;37.70;1.00;;;;;;5012639;28;20195;-78
2023/06/11 13:55:50;;;;;;;1.83;1.63;;;37.60;1.00;;;;;;5012174;28;20262;-79
2023/06/11 13:58:16;;;;;;;1.60;1.40;;;37.60;1.00;;;;;;5012408;28;20532;-79
2023/06/11 14:00:42;;;;;;;2.27;1.87;;;37.40;1.00;;;;;;5012487;28;20556;-78
2023/06/11 14:03:09;;;;;;;2.50;1.63;;;37.20;1.00;;;;;;5013393;28;20225;-83
2023/06/11 14:05:35;;;;;;;2.10;1.90;;;36.90;1.00;;;;;;5031642;28;21022;-81
2023/06/11 14:08:00;;;;;;;2.03;1.50;;;36.50;1.00;;;;;;5031032;28;20511;-78
2023/06/11 14:10:26;;;;;;;3.10;1.87;;;36.10;1.00;;;;;;5032151;28;20173;-82
2023/06/11 14:12:52;;;;;;;2.93;2.20;;;35.70;1.00;;;;;;5032021;28;20677;-79
2023/06/11 14:15:17;;;;;;;1.70;1.60;;;35.30;1.00;;;;;;5032196;28;20170;-78
2023/06/11 14:17:44;;;;;;;2.77;1.80;;;35.00;1.00;;;;;;5032143;28;20256;-78